Time;durP1;ratioP1;P1;durP2;ratioP2;P2;SDS_P1;SDS_P2;PMS_P1;PMS_P2;Temp;Humidity;BMP_temperature;BMP_pressure;BME280_temperature;BME280_humidity;BME280_pressure;Samples;Min_cycle;Max_cycle;Signal;HPM_P1;HPM_P2
2023/01/20 00:00:25;;;;;;;6.18;2.70;;;;;;;-3.58;100.00;93041.50;5032281;28;20068;-59
2023/01/20 00:02:55;;;;;;;14.75;5.10;;;;;;;-3.79;100.00;93051.69;5032474;28;20080;-59
2023/01/20 00:05:22;;;;;;;13.05;5.20;;;;;;;-3.58;100.00;93043.38;5033103;28;20061;-59
2023/01/20 00:07:49;;;;;;;13.00;4.80;;;;;;;-3.59;100.00;93056.00;5032077;28;20060;-59
2023/01/20 00:10:16;;;;;;;9.05;3.60;;;;;;;-3.81;100.00;93060.09;5032718;28;20384;-59
2023/01/20 00:12:43;;;;;;;6.45;2.90;;;;;;;-4.02;100.00;93063.03;5032376;28;20053;-58
2023/01/20 00:15:10;;;;;;;6.25;2.13;;;;;;;-4.05;100.00;93072.50;5032240;28;20052;-59
2023/01/20 00:17:37;;;;;;;4.47;2.13;;;;;;;-3.88;100.00;93067.97;5032178;28;20091;-58
2023/01/20 00:20:04;;;;;;;4.73;1.93;;;;;;;-3.78;100.00;93063.97;5032610;28;20045;-59
2023/01/20 00:22:31;;;;;;;7.13;2.83;;;;;;;-3.83;100.00;93079.19;5032018;28;20081;-59
2023/01/20 00:24:58;;;;;;;9.18;3.63;;;;;;;-3.74;100.00;93075.56;5032173;28;20053;-59
2023/01/20 00:27:24;;;;;;;5.57;2.45;;;;;;;-3.66;100.00;93080.78;5032525;28;20401;-59
2023/01/20 00:29:51;;;;;;;6.40;2.17;;;;;;;-3.70;100.00;93076.41;5031209;28;20057;-58
2023/01/20 00:32:18;;;;;;;5.03;1.93;;;;;;;-3.78;100.00;93080.84;5032317;28;20049;-59
2023/01/20 00:34:45;;;;;;;10.65;3.50;;;;;;;-3.79;100.00;93084.66;5034662;28;20045;-59
2023/01/20 00:37:11;;;;;;;12.20;5.38;;;;;;;-3.97;100.00;93084.19;5051782;28;20041;-59
2023/01/20 00:39:38;;;;;;;28.63;7.05;;;;;;;-3.96;100.00;93091.13;5051654;28;20440;-58
2023/01/20 00:42:05;;;;;;;26.48;6.40;;;;;;;-3.89;100.00;93098.56;5052291;28;20531;-59
2023/01/20 00:44:31;;;;;;;25.83;5.93;;;;;;;-3.83;100.00;93084.56;5034157;28;20418;-59
2023/01/20 00:46:58;;;;;;;18.02;4.80;;;;;;;-4.10;100.00;93088.09;5034053;28;20037;-59
2023/01/20 00:49:25;;;;;;;17.80;6.32;;;;;;;-4.02;100.00;93093.28;5051765;28;20045;-59
2023/01/20 00:51:51;;;;;;;16.73;5.78;;;;;;;-4.10;100.00;93102.25;5050941;28;20417;-59
2023/01/20 00:54:18;;;;;;;44.47;8.65;;;;;;;-4.24;100.00;93097.28;5052005;28;20049;-59
2023/01/20 00:56:45;;;;;;;33.43;7.03;;;;;;;-4.28;100.00;93101.78;5050487;28;20098;-58
2023/01/20 00:59:11;;;;;;;47.17;8.95;;;;;;;-4.18;100.00;93097.84;5051199;28;20045;-59
2023/01/20 01:01:38;;;;;;;35.58;8.50;;;;;;;-4.09;100.00;93098.44;5050738;28;20053;-58
2023/01/20 01:04:05;;;;;;;26.00;6.30;;;;;;;-4.04;100.00;93100.88;5051886;28;20045;-59
2023/01/20 01:06:31;;;;;;;13.63;4.45;;;;;;;-3.94;100.00;93106.84;5051505;28;20036;-59
2023/01/20 01:08:58;;;;;;;22.37;5.37;;;;;;;-3.88;100.00;93110.84;5051426;28;20093;-59
2023/01/20 01:11:25;;;;;;;16.10;4.80;;;;;;;-4.02;100.00;93111.25;5051201;28;20052;-59
2023/01/20 01:13:54;;;;;;;19.95;6.03;;;;;;;-4.35;100.00;93111.53;5050437;28;20053;-59
2023/01/20 01:16:21;;;;;;;19.73;5.32;;;;;;;-4.34;100.00;93121.13;5051735;28;20051;-59
2023/01/20 01:18:47;;;;;;;20.90;5.93;;;;;;;-4.01;100.00;93120.84;5050730;28;20049;-59
2023/01/20 01:21:15;;;;;;;19.17;6.17;;;;;;;-4.05;100.00;93125.34;5050872;28;20051;-59
2023/01/20 01:23:43;;;;;;;18.13;5.57;;;;;;;-3.91;100.00;93132.97;5050693;28;20055;-58
2023/01/20 01:26:09;;;;;;;17.65;5.65;;;;;;;-4.01;100.00;93128.88;5051130;28;20094;-59
2023/01/20 01:28:36;;;;;;;14.82;5.43;;;;;;;-4.08;100.00;93137.53;5050481;28;20049;-58
2023/01/20 01:31:05;;;;;;;10.30;4.47;;;;;;;-4.01;100.00;93134.25;5051205;28;20076;-59
2023/01/20 01:33:33;;;;;;;15.60;6.50;;;;;;;-3.94;100.00;93147.03;5050803;28;20045;-59
2023/01/20 01:36:01;;;;;;;12.25;4.60;;;;;;;-3.90;100.00;93142.59;5050285;28;20405;-59
2023/01/20 01:38:28;;;;;;;12.23;4.50;;;;;;;-3.95;100.00;93150.88;5033307;28;20049;-59
2023/01/20 01:41:14;;;;;;;29.35;9.80;;;;;;;-4.35;100.00;93160.50;5006355;28;20037;-59
2023/01/20 01:44:02;;;;;;;18.00;6.70;;;;;;;-4.17;100.00;93152.97;5049967;28;20041;-58
2023/01/20 01:46:29;;;;;;;15.87;5.20;;;;;;;-3.94;100.00;93147.03;5051031;28;20071;-63
2023/01/20 01:48:57;;;;;;;16.63;5.28;;;;;;;-3.91;100.00;93162.47;5021123;28;20045;-59
2023/01/20 01:51:28;;;;;;;14.32;5.50;;;;;;;-3.86;100.00;93154.19;5030497;28;20049;-59
2023/01/20 01:54:00;;;;;;;12.98;5.20;;;;;;;-4.06;100.00;93156.72;5030243;28;20110;-59
2023/01/20 01:56:28;;;;;;;10.43;4.50;;;;;;;-4.06;100.00;93154.03;5030841;28;20045;-59
2023/01/20 01:58:58;;;;;;;10.73;4.27;;;;;;;-4.06;100.00;93158.63;5029755;28;20442;-59
2023/01/20 02:01:26;;;;;;;12.43;4.85;;;;;;;-4.02;100.00;93160.28;5030799;28;20041;-59
2023/01/20 02:04:04;;;;;;;11.35;4.95;;;;;;;-3.87;100.00;93149.94;5029953;28;20434;-58
2023/01/20 02:06:33;;;;;;;11.15;4.68;;;;;;;-3.88;100.00;93149.16;5030289;28;20046;-59
2023/01/20 02:09:03;;;;;;;11.48;5.05;;;;;;;-3.84;100.00;93159.97;5012318;28;20496;-59
2023/01/20 02:11:34;;;;;;;12.80;4.67;;;;;;;-3.90;100.00;93156.00;5030599;28;20053;-59
2023/01/20 02:14:01;;;;;;;13.85;5.18;;;;;;;-3.91;100.00;93154.41;5029886;28;20446;-58
2023/01/20 02:16:36;;;;;;;49.03;15.63;;;;;;;-3.88;100.00;93159.88;5037178;28;20413;-58
2023/01/20 02:19:21;;;;;;;13.13;5.22;;;;;;;-3.88;100.00;93165.22;5049225;28;21095;-59
2023/01/20 02:22:00;;;;;;;7.18;3.28;;;;;;;-4.05;100.00;93168.97;5050003;28;20045;-59
2023/01/20 02:24:51;;;;;;;7.63;3.00;;;;;;;-4.24;100.00;93166.94;5031842;28;20086;-59
2023/01/20 02:27:40;;;;;;;7.22;3.25;;;;;;;-4.11;100.00;93164.22;5048849;28;20867;-59
2023/01/20 02:30:28;;;;;;;6.55;2.88;;;;;;;-4.30;100.00;93175.56;5049243;28;20146;-59
2023/01/20 02:33:04;;;;;;;12.55;4.78;;;;;;;-4.47;100.00;93166.66;5049683;28;20040;-59
2023/01/20 02:35:40;;;;;;;13.35;5.10;;;;;;;-4.33;100.00;93174.34;5049858;28;20090;-59
2023/01/20 02:38:32;;;;;;;13.20;5.30;;;;;;;-4.19;100.00;93175.88;5049091;28;20628;-59
2023/01/20 02:41:15;;;;;;;12.35;5.20;;;;;;;-3.99;100.00;93172.19;5049433;28;20102;-59
2023/01/20 02:43:58;;;;;;;14.65;5.25;;;;;;;-3.99;100.00;93180.25;5049545;28;20554;-58
2023/01/20 02:46:35;;;;;;;13.10;5.20;;;;;;;-3.92;100.00;93179.66;5050193;28;20059;-59
2023/01/20 02:49:12;;;;;;;14.30;5.72;;;;;;;-4.03;100.00;93177.47;5036069;28;20941;-59
2023/01/20 02:51:51;;;;;;;15.57;5.67;;;;;;;-4.09;100.00;93175.38;5029651;28;20045;-59
2023/01/20 02:54:20;;;;;;;14.18;5.57;;;;;;;-4.17;100.00;93173.63;5029968;28;20093;-59
2023/01/20 02:56:50;;;;;;;16.30;5.72;;;;;;;-4.12;100.00;93181.44;5029062;28;20056;-59
2023/01/20 02:59:22;;;;;;;16.10;6.38;;;;;;;-4.12;100.00;93182.19;5030145;28;20405;-59
2023/01/20 03:01:53;;;;;;;18.08;6.10;;;;;;;-3.94;100.00;93184.56;5029452;28;20072;-59
2023/01/20 03:04:28;;;;;;;20.83;7.00;;;;;;;-3.99;100.00;93182.91;5029481;28;20389;-59
2023/01/20 03:06:58;;;;;;;20.10;6.93;;;;;;;-4.00;100.00;93189.41;5012283;28;20504;-60
2023/01/20 03:09:32;;;;;;;17.88;6.15;;;;;;;-3.99;100.00;93185.59;5029860;28;20482;-60
2023/01/20 03:12:10;;;;;;;16.02;6.38;;;;;;;-3.93;100.00;93197.63;5029360;28;20046;-60
2023/01/20 03:14:37;;;;;;;15.75;5.95;;;;;;;-3.99;100.00;93196.31;5029246;28;20118;-59
2023/01/20 03:17:04;;;;;;;15.20;5.80;;;;;;;-4.15;100.00;93198.19;5030185;28;20500;-60
2023/01/20 03:19:30;;;;;;;17.67;5.70;;;;;;;-3.92;100.00;93206.47;5030061;28;20060;-60
2023/01/20 03:21:57;;;;;;;13.48;5.82;;;;;;;-4.14;100.00;93195.16;5015565;28;20049;-60
2023/01/20 03:24:28;;;;;;;14.98;5.88;;;;;;;-3.95;100.00;93204.47;5033544;28;20057;-60
2023/01/20 03:26:55;;;;;;;16.63;5.95;;;;;;;-3.80;100.00;93209.09;5032499;28;20444;-60
2023/01/20 03:29:22;;;;;;;15.13;5.83;;;;;;;-3.85;100.00;93214.69;5033358;28;20107;-60
2023/01/20 03:31:55;;;;;;;18.90;6.15;;;;;;;-3.83;100.00;93204.41;5033032;28;20045;-60
2023/01/20 03:34:25;;;;;;;20.83;7.28;;;;;;;-4.06;100.00;93206.88;5015610;28;20049;-60
2023/01/20 03:36:53;;;;;;;15.35;5.93;;;;;;;-4.08;100.00;93215.22;5033176;28;20041;-59
2023/01/20 03:39:22;;;;;;;13.05;5.32;;;;;;;-3.99;100.00;93215.09;5033235;28;20042;-60
2023/01/20 03:42:13;;;;;;;10.87;4.90;;;;;;;-3.93;100.00;93221.75;5032558;28;20457;-60
2023/01/20 03:44:56;;;;;;;14.27;5.38;;;;;;;-3.87;100.00;93222.31;5032937;28;20045;-59
2023/01/20 03:47:49;;;;;;;13.10;5.32;;;;;;;-3.93;100.00;93229.03;5033652;28;20057;-60
2023/01/20 03:50:32;;;;;;;11.00;5.15;;;;;;;-3.90;100.00;93231.03;5051957;28;20041;-60
2023/01/20 03:53:08;;;;;;;15.02;6.10;;;;;;;-4.20;100.00;93234.03;5052846;28;20045;-60
2023/01/20 03:55:38;;;;;;;13.80;5.60;;;;;;;-3.97;100.00;93228.91;5052388;28;20057;-60
2023/01/20 03:58:15;;;;;;;16.98;5.95;;;;;;;-3.97;100.00;93228.91;5052045;28;20049;-60
2023/01/20 04:00:45;;;;;;;13.30;5.60;;;;;;;-3.96;100.00;93240.41;5052435;28;20044;-60
2023/01/20 04:03:17;;;;;;;13.60;5.10;;;;;;;-3.83;100.00;93237.34;5052891;28;20037;-60
2023/01/20 04:05:47;;;;;;;12.45;5.72;;;;;;;-3.84;100.00;93237.72;5052109;28;20463;-60
2023/01/20 04:08:16;;;;;;;13.00;5.07;;;;;;;-3.76;100.00;93239.47;5052998;28;20052;-60
2023/01/20 04:10:47;;;;;;;11.35;5.35;;;;;;;-4.02;100.00;93246.03;5051775;28;20050;-60
2023/01/20 04:13:15;;;;;;;13.25;5.45;;;;;;;-3.86;100.00;93248.00;5052614;28;20406;-60
2023/01/20 04:15:44;;;;;;;14.32;5.47;;;;;;;-3.84;100.00;93248.44;5051834;28;20056;-60
2023/01/20 04:18:12;;;;;;;15.80;6.32;;;;;;;-3.98;100.00;93248.00;5046824;28;20044;-60
2023/01/20 04:20:39;;;;;;;17.73;5.87;;;;;;;-3.77;100.00;93253.22;5032265;28;20044;-60
2023/01/20 04:23:12;;;;;;;13.90;4.82;;;;;;;-3.87;100.00;93251.78;5032671;28;20045;-60
2023/01/20 04:25:39;;;;;;;17.58;6.50;;;;;;;-3.84;100.00;93248.44;5031346;28;20042;-59
2023/01/20 04:28:05;;;;;;;12.63;4.53;;;;;;;-3.93;100.00;93267.31;5032685;28;20045;-60
2023/01/20 04:30:32;;;;;;;11.90;4.43;;;;;;;-4.44;100.00;93262.41;5031739;28;20042;-60
2023/01/20 04:32:59;;;;;;;18.10;6.07;;;;;;;-4.58;100.00;93272.69;5031199;28;20474;-60
2023/01/20 04:35:25;;;;;;;20.10;6.20;;;;;;;-4.46;100.00;93263.88;5040343;28;20650;-60
2023/01/20 04:37:52;;;;;;;16.00;5.97;;;;;;;-4.35;100.00;93269.53;5034268;28;20067;-60
2023/01/20 04:40:19;;;;;;;17.60;6.38;;;;;;;-4.29;100.00;93271.66;5051341;28;20126;-60
2023/01/20 04:42:46;;;;;;;15.68;6.00;;;;;;;-4.26;100.00;93279.03;5051492;28;20045;-60
2023/01/20 04:45:16;;;;;;;15.80;5.60;;;;;;;-4.45;100.00;93278.81;5051990;28;20041;-60
2023/01/20 04:47:43;;;;;;;24.83;8.25;;;;;;;-4.51;100.00;93282.84;5050880;28;20482;-59
2023/01/20 04:50:11;;;;;;;20.92;7.85;;;;;;;-4.30;100.00;93278.13;5034027;28;20555;-60
2023/01/20 04:52:38;;;;;;;22.13;7.57;;;;;;;-4.32;100.00;93285.72;5051447;28;20040;-59
2023/01/20 04:55:05;;;;;;;14.45;5.53;;;;;;;-4.34;100.00;93276.47;5034013;28;20040;-60
2023/01/20 04:57:32;;;;;;;16.90;5.80;;;;;;;-4.52;100.00;93284.75;5051796;28;20109;-60
2023/01/20 04:59:58;;;;;;;15.73;6.28;;;;;;;-4.62;100.00;93290.56;5033511;28;20477;-60
2023/01/20 05:02:25;;;;;;;28.67;8.35;;;;;;;-4.73;100.00;93298.22;5051354;28;20409;-60
2023/01/20 05:04:52;;;;;;;18.95;7.63;;;;;;;-4.90;100.00;93299.22;5051223;28;20563;-60
2023/01/20 05:07:18;;;;;;;18.70;7.20;;;;;;;-5.11;100.00;93307.34;5051606;28;20055;-60
2023/01/20 05:09:45;;;;;;;16.20;6.33;;;;;;;-5.20;100.00;93311.22;5050403;28;20061;-59
2023/01/20 05:12:12;;;;;;;16.33;5.88;;;;;;;-5.47;100.00;93314.16;5051734;28;20051;-60
2023/01/20 05:14:38;;;;;;;15.70;6.03;;;;;;;-5.62;100.00;93317.44;5051104;28;20052;-60
2023/01/20 05:17:05;;;;;;;18.08;7.13;;;;;;;-5.59;100.00;93318.66;5050814;28;20094;-60
2023/01/20 05:19:32;;;;;;;25.85;11.43;;;;;;;-5.55;100.00;93320.38;5050856;28;20061;-60
2023/01/20 05:21:59;;;;;;;14.70;6.30;;;;;;;-5.69;100.00;93325.22;5050867;28;20040;-60
2023/01/20 05:24:25;;;;;;;12.13;5.10;;;;;;;-5.78;100.00;93325.28;5050987;28;20053;-60
2023/01/20 05:26:52;;;;;;;17.02;7.10;;;;;;;-5.82;100.00;93330.50;5050451;28;20049;-60
2023/01/20 05:29:19;;;;;;;19.08;7.80;;;;;;;-5.84;100.00;93332.72;5051204;28;20490;-60
2023/01/20 05:31:45;;;;;;;17.80;9.15;;;;;;;-5.85;100.00;93330.38;5049775;28;20053;-60
2023/01/20 05:34:12;;;;;;;15.57;7.60;;;;;;;-5.94;100.00;93333.09;5051154;28;20452;-60
2023/01/20 05:36:39;;;;;;;15.30;6.60;;;;;;;-5.89;100.00;93342.84;5050557;28;20045;-61
2023/01/20 05:39:05;;;;;;;14.70;5.90;;;;;;;-5.83;100.00;93342.31;5050573;28;20045;-60
2023/01/20 05:41:32;;;;;;;17.73;6.80;;;;;;;-5.80;100.00;93350.78;5050825;28;20045;-60
2023/01/20 05:43:59;;;;;;;11.60;5.20;;;;;;;-5.91;100.00;93355.75;5050051;28;20079;-60
2023/01/20 05:46:25;;;;;;;10.77;4.17;;;;;;;-5.88;100.00;93358.50;5050348;28;20379;-60
2023/01/20 05:48:52;;;;;;;9.68;4.00;;;;;;;-5.92;100.00;93360.28;5039253;28;20049;-60
2023/01/20 05:51:19;;;;;;;12.60;6.00;;;;;;;-5.86;100.00;93369.66;5030863;28;20041;-60
2023/01/20 05:53:46;;;;;;;16.75;7.05;;;;;;;-5.77;100.00;93374.19;5012449;28;20417;-60
2023/01/20 05:56:14;;;;;;;16.92;7.55;;;;;;;-5.71;100.00;93370.22;5030591;28;20037;-60
2023/01/20 05:58:41;;;;;;;17.60;7.40;;;;;;;-5.60;100.00;93382.06;5030133;28;20478;-58
2023/01/20 06:01:11;;;;;;;18.45;7.38;;;;;;;-5.52;100.00;93378.53;5037187;28;20037;-60
2023/01/20 06:03:38;;;;;;;19.67;7.85;;;;;;;-5.54;100.00;93382.63;5042258;28;20045;-59
2023/01/20 06:06:07;;;;;;;16.98;7.47;;;;;;;-5.49;100.00;93388.56;5032193;28;20036;-59
2023/01/20 06:08:34;;;;;;;18.42;7.57;;;;;;;-5.54;100.00;93382.63;5049469;28;20053;-61
2023/01/20 06:11:00;;;;;;;19.47;8.00;;;;;;;-5.52;100.00;93399.91;5049837;28;20044;-60
2023/01/20 06:13:27;;;;;;;23.17;9.23;;;;;;;-5.49;100.00;93396.59;5050124;28;20078;-60
2023/01/20 06:15:54;;;;;;;22.30;9.23;;;;;;;-5.49;100.00;93391.25;5048472;28;20504;-60
2023/01/20 06:18:22;;;;;;;25.88;10.48;;;;;;;-5.53;100.00;93400.22;5049971;28;20432;-60
2023/01/20 06:20:49;;;;;;;25.77;11.02;;;;;;;-5.47;100.00;93397.06;5049043;28;20086;-60
2023/01/20 06:23:16;;;;;;;23.20;10.33;;;;;;;-5.46;100.00;93403.19;5049342;28;20471;-61
2023/01/20 06:25:43;;;;;;;24.05;10.35;;;;;;;-5.55;100.00;93403.25;5048942;28;20189;-60
2023/01/20 06:28:10;;;;;;;30.38;12.52;;;;;;;-5.32;100.00;93411.69;5049543;28;20121;-60
2023/01/20 06:30:37;;;;;;;33.15;12.80;;;;;;;-5.30;100.00;93412.16;5048945;28;20045;-60
2023/01/20 06:33:09;;;;;;;27.60;11.70;;;;;;;-5.18;100.00;93421.34;5049740;28;20405;-60
2023/01/20 06:35:36;;;;;;;30.83;12.93;;;;;;;-5.35;100.00;93423.06;5050019;28;20106;-61
2023/01/20 06:38:03;;;;;;;29.20;11.48;;;;;;;-5.19;100.00;93428.59;5048146;28;20217;-60
2023/01/20 06:40:31;;;;;;;26.90;11.50;;;;;;;-5.10;100.00;93434.63;5049718;28;20563;-60
2023/01/20 06:42:58;;;;;;;26.50;10.13;;;;;;;-5.18;100.00;93424.81;5048936;28;20392;-61
2023/01/20 06:45:24;;;;;;;24.98;10.32;;;;;;;-5.10;100.00;93428.53;5049669;28;20758;-60
2023/01/20 06:47:51;;;;;;;23.03;9.83;;;;;;;-5.05;100.00;93430.97;5048675;28;20061;-59
2023/01/20 06:50:18;;;;;;;23.60;9.82;;;;;;;-4.99;100.00;93437.69;5049443;28;20406;-60
2023/01/20 06:52:45;;;;;;;25.67;11.20;;;;;;;-4.87;100.00;93439.63;5048863;28;20053;-59
2023/01/20 06:55:11;;;;;;;31.70;12.90;;;;;;;-4.85;100.00;93437.41;5051484;28;20098;-60
2023/01/20 06:57:39;;;;;;;31.30;14.02;;;;;;;-5.28;100.00;93449.28;5052840;28;20470;-60
2023/01/20 07:00:06;;;;;;;30.17;13.37;;;;;;;-5.52;100.00;93452.59;5053521;28;20041;-61
2023/01/20 07:02:33;;;;;;;29.67;12.57;;;;;;;-5.24;100.00;93456.31;5053432;28;20045;-60
2023/01/20 07:04:59;;;;;;;27.80;12.45;;;;;;;-5.22;100.00;93458.66;5053373;28;20110;-60
2023/01/20 07:07:26;;;;;;;27.73;12.00;;;;;;;-5.00;100.00;93462.91;5035653;28;20078;-60
2023/01/20 07:09:54;;;;;;;31.25;12.63;;;;;;;-5.09;100.00;93467.53;5052383;28;20044;-60
2023/01/20 07:12:20;;;;;;;26.43;11.17;;;;;;;-4.99;100.00;93459.09;5053693;28;20045;-60
2023/01/20 07:14:47;;;;;;;27.30;11.63;;;;;;;-5.00;100.00;93470.16;5053076;28;20490;-59
2023/01/20 07:17:14;;;;;;;24.17;10.63;;;;;;;-4.98;100.00;93471.38;5052889;28;20037;-60
2023/01/20 07:19:40;;;;;;;27.63;10.95;;;;;;;-4.79;100.00;93470.09;5034671;28;20204;-59
2023/01/20 07:22:07;;;;;;;26.52;11.35;;;;;;;-4.77;100.00;93484.72;5053223;28;20041;-60
2023/01/20 07:24:34;;;;;;;30.07;11.93;;;;;;;-4.72;100.00;93479.16;5035187;28;20052;-60
2023/01/20 07:27:01;;;;;;;34.10;13.45;;;;;;;-4.62;100.00;93481.41;5052814;28;20033;-60
2023/01/20 07:29:27;;;;;;;35.30;13.88;;;;;;;-4.64;100.00;93485.56;5051872;28;20052;-60
2023/01/20 07:31:54;;;;;;;34.60;13.95;;;;;;;-4.64;100.00;93490.91;5051776;28;20436;-60
2023/01/20 07:34:21;;;;;;;31.23;13.15;;;;;;;-4.47;100.00;93490.72;5048315;28;20053;-60
2023/01/20 07:36:50;;;;;;;33.67;13.17;;;;;;;-4.43;100.00;93494.31;5052165;28;20037;-60
2023/01/20 07:39:19;;;;;;;33.40;14.60;;;;;;;-4.88;100.00;93503.09;5052808;28;20055;-60
2023/01/20 07:41:48;;;;;;;30.70;13.23;;;;;;;-4.78;100.00;93498.44;5052132;28;20055;-60
2023/01/20 07:44:15;;;;;;;31.15;12.70;;;;;;;-4.65;100.00;93505.38;5053058;28;20409;-60
2023/01/20 07:46:42;;;;;;;29.50;12.80;;;;;;;-4.51;100.00;93505.88;5052196;28;20041;-60
2023/01/20 07:49:10;;;;;;;34.23;12.50;;;;;;;-4.40;100.00;93511.63;5052996;28;20045;-60
2023/01/20 07:51:38;;;;;;;36.85;13.93;;;;;;;-4.51;100.00;93516.59;5052505;28;20071;-59
2023/01/20 07:54:05;;;;;;;30.10;12.85;;;;;;;-4.49;100.00;93514.38;5052834;28;20047;-60
2023/01/20 07:56:32;;;;;;;33.75;12.77;;;;;;;-4.53;100.00;93513.47;5018566;28;20037;-60
2023/01/20 07:58:59;;;;;;;38.33;14.18;;;;;;;-4.46;100.00;93518.28;5052297;28;20041;-60
2023/01/20 08:01:30;;;;;;;35.90;13.83;;;;;;;-4.21;100.00;93535.19;5052619;28;20045;-60
2023/01/20 08:04:01;;;;;;;35.30;13.57;;;;;;;-4.22;100.00;93529.06;5051899;28;20055;-60
2023/01/20 08:06:28;;;;;;;36.58;14.38;;;;;;;-4.13;100.00;93537.00;5052127;28;20045;-60
2023/01/20 08:08:58;;;;;;;34.30;13.55;;;;;;;-3.98;100.00;93524.06;5052010;28;20041;-60
2023/01/20 08:11:24;;;;;;;34.65;13.35;;;;;;;-3.83;100.00;93536.84;5052798;28;20513;-60
2023/01/20 08:13:51;;;;;;;36.17;14.40;;;;;;;-3.96;100.00;93532.56;5051839;28;20162;-60
2023/01/20 08:16:18;;;;;;;33.10;12.95;;;;;;;-4.00;100.00;93535.16;5052394;28;20048;-60
2023/01/20 08:18:45;;;;;;;36.63;13.60;;;;;;;-3.67;100.00;93545.78;5034206;28;20410;-60
2023/01/20 08:21:23;;;;;;;30.10;12.55;;;;;;;-3.40;100.00;93546.25;5052716;28;20041;-60
2023/01/20 08:23:50;;;;;;;30.60;12.50;;;;;;;-3.51;100.00;93551.25;5051753;28;20538;-60
2023/01/20 08:26:18;;;;;;;34.83;13.70;;;;;;;-3.42;100.00;93546.56;5052448;28;20055;-60
2023/01/20 08:28:45;;;;;;;32.83;12.95;;;;;;;-3.35;100.00;93548.69;5051948;28;20059;-60
2023/01/20 08:31:14;;;;;;;32.67;14.30;;;;;;;-3.82;100.00;93557.94;5052254;28;20059;-60
2023/01/20 08:33:43;;;;;;;30.27;13.27;;;;;;;-3.44;100.00;93556.84;5051733;28;20405;-60
2023/01/20 08:36:12;;;;;;;38.53;15.10;;;;;;;-3.44;100.00;93556.06;5052288;28;20511;-60
2023/01/20 08:38:39;;;;;;;34.67;13.93;;;;;;;-3.19;100.00;93558.75;5051183;28;20044;-59
2023/01/20 08:41:12;;;;;;;31.20;13.75;;;;;;;-3.03;100.00;93560.38;5052234;28;20039;-60
2023/01/20 08:43:38;;;;;;;32.22;14.32;;;;;;;-2.58;100.00;93561.28;5051698;28;20053;-59
2023/01/20 08:46:12;;;;;;;36.22;13.55;;;;;;;-2.50;100.00;93560.34;5034232;28;20562;-60
2023/01/20 08:48:40;;;;;;;30.60;13.15;;;;;;;-2.25;100.00;93568.34;5051675;28;20067;-59
2023/01/20 08:51:19;;;;;;;30.93;12.77;;;;;;;-2.19;100.00;93576.91;5051378;28;20497;-60
2023/01/20 08:53:47;;;;;;;38.30;14.82;;;;;;;-1.97;100.00;93583.66;5050896;28;20478;-60
2023/01/20 08:56:15;;;;;;;30.85;14.25;;;;;;;-2.81;100.00;93583.28;5050970;28;20051;-61
2023/01/20 08:58:41;;;;;;;28.55;13.13;;;;;;;-2.72;100.00;93587.75;5051102;28;20499;-59
2023/01/20 09:01:10;;;;;;;33.78;13.98;;;;;;;-3.15;100.00;93597.97;5051193;28;20411;-60
2023/01/20 09:03:38;;;;;;;34.37;14.77;;;;;;;-2.95;100.00;93604.34;5050917;28;20058;-59
2023/01/20 09:06:06;;;;;;;33.58;15.88;;;;;;;-3.22;100.00;93609.28;5051478;28;20114;-60
2023/01/20 09:08:34;;;;;;;34.88;15.30;;;;;;;-3.03;100.00;93608.72;5033439;28;20056;-60
2023/01/20 09:11:23;;;;;;;30.17;13.35;;;;;;;-1.91;100.00;93618.03;5051059;28;20482;-60
2023/01/20 09:13:51;;;;;;;30.25;13.40;;;;;;;-1.08;95.56;93614.69;5050883;28;20113;-60
2023/01/20 09:16:18;;;;;;;33.07;13.80;;;;;;;-0.33;92.47;93618.28;5051427;28;20053;-60
2023/01/20 09:18:45;;;;;;;35.08;15.88;;;;;;;-0.41;91.28;93626.19;5049854;28;20501;-60
2023/01/20 09:21:12;;;;;;;34.45;14.95;;;;;;;-0.54;90.34;93622.06;5051357;28;20051;-60
2023/01/20 09:23:39;;;;;;;30.20;13.70;;;;;;;-0.41;89.23;93618.09;5032198;28;20045;-60
2023/01/20 09:26:07;;;;;;;30.80;14.80;;;;;;;0.01;88.16;93622.03;5051085;28;20036;-60
2023/01/20 09:28:34;;;;;;;32.53;14.30;;;;;;;0.90;83.94;93619.38;5051148;28;20056;-59
2023/01/20 09:31:06;;;;;;;28.50;13.30;;;;;;;0.50;83.19;93616.00;5050711;28;20073;-60
2023/01/20 09:33:37;;;;;;;29.42;14.15;;;;;;;0.93;81.77;93622.13;5049490;28;20044;-60
2023/01/20 09:36:05;;;;;;;34.15;15.20;;;;;;;0.21;82.84;93628.22;5049994;28;21745;-58
2023/01/20 09:44:17;;;;;;;26.48;12.80;;;;;;;0.32;84.60;93628.41;5049844;28;20418;-58
2023/01/20 09:53:31;;;;;;;22.58;10.55;;;;;;;0.85;80.79;93638.59;5049336;28;20655;-59
2023/01/20 09:56:15;;;;;;;23.57;11.30;;;;;;;1.01;81.50;93639.25;5050357;28;20512;-58
2023/01/20 09:58:54;;;;;;;16.27;7.40;;;;;;;0.60;79.83;93638.94;5038865;28;20086;-58
2023/01/20 10:01:29;;;;;;;15.38;7.88;;;;;;;0.14;80.34;93636.97;5050152;28;20051;-59
2023/01/20 10:04:08;;;;;;;17.42;7.43;;;;;;;0.73;79.42;93639.56;5050184;28;21000;-59
2023/01/20 10:06:46;;;;;;;23.27;11.60;;;;;;;0.40;81.42;93643.59;5050500;28;20037;-59
2023/01/20 10:09:22;;;;;;;24.13;11.17;;;;;;;0.98;79.80;93643.44;5049402;28;20083;-59
2023/01/20 10:11:54;;;;;;;17.65;8.50;;;;;;;0.92;78.92;93646.81;5049955;28;20558;-58
2023/01/20 10:14:28;;;;;;;11.38;5.75;;;;;;;0.06;80.40;93646.03;5050378;28;20057;-59
2023/01/20 10:17:12;;;;;;;16.77;6.50;;;;;;;-1.62;89.74;93641.06;5049467;28;20409;-59
2023/01/20 10:19:45;;;;;;;12.75;5.88;;;;;;;-0.83;88.68;93656.44;5050023;28;20048;-58
2023/01/20 10:22:16;;;;;;;13.27;5.80;;;;;;;-0.19;83.73;93652.84;5032496;28;20455;-58
2023/01/20 10:24:54;;;;;;;15.20;6.25;;;;;;;0.42;79.55;93645.94;5049671;28;20459;-58
2023/01/20 10:27:25;;;;;;;13.30;6.63;;;;;;;-0.38;80.26;93645.50;5049941;28;20102;-59
2023/01/20 10:30:00;;;;;;;12.18;6.20;;;;;;;0.58;79.01;93652.00;5049282;28;20047;-59
2023/01/20 10:32:35;;;;;;;22.80;6.53;;;;;;;0.53;77.06;93647.69;5050064;28;20079;-59
2023/01/20 10:35:15;;;;;;;20.57;6.10;;;;;;;-0.14;76.75;93653.34;5049344;28;20859;-60
2023/01/20 10:37:42;;;;;;;13.00;5.63;;;;;;;-0.66;82.95;93657.22;5049562;28;20497;-61
2023/01/20 10:40:23;;;;;;;22.52;5.72;;;;;;;-0.01;77.86;93648.59;5048489;28;20056;-59
2023/01/20 10:42:57;;;;;;;16.73;5.05;;;;;;;-0.32;79.06;93650.28;5049865;28;20049;-59
2023/01/20 10:45:33;;;;;;;9.95;4.85;;;;;;;-0.79;81.58;93653.06;5049924;28;20051;-59
2023/01/20 10:48:26;;;;;;;12.13;4.97;;;;;;;-0.90;82.76;93653.59;5049626;28;20486;-59
2023/01/20 10:51:12;;;;;;;11.10;5.00;;;;;;;0.11;79.95;93647.66;5026245;28;20053;-59
2023/01/20 10:53:48;;;;;;;13.05;4.60;;;;;;;-0.53;78.84;93642.50;5049384;28;20048;-58
2023/01/20 10:56:23;;;;;;;14.45;5.28;;;;;;;-0.82;82.22;93641.09;5049847;28;20051;-59
2023/01/20 10:58:49;;;;;;;14.98;5.43;;;;;;;-0.47;80.77;93653.78;5048972;28;20053;-59
2023/01/20 11:01:20;;;;;;;14.20;5.50;;;;;;;-0.09;78.58;93650.34;5049644;28;20049;-59
2023/01/20 11:03:48;;;;;;;16.08;5.10;;;;;;;-0.28;79.75;93656.53;5049059;28;20045;-59
2023/01/20 11:06:26;;;;;;;12.25;5.35;;;;;;;0.34;76.84;93651.22;5049809;28;20051;-59
2023/01/20 11:08:54;;;;;;;18.95;4.88;;;;;;;0.33;76.37;93652.34;5048916;28;20045;-59
2023/01/20 11:11:22;;;;;;;12.38;5.70;;;;;;;-0.45;82.23;93652.28;5049869;28;20071;-59
2023/01/20 11:13:51;;;;;;;11.03;5.37;;;;;;;-0.72;81.88;93647.84;5048798;28;20049;-59
2023/01/20 11:16:23;;;;;;;13.75;5.10;;;;;;;-0.04;80.54;93654.69;5049503;28;20377;-59
2023/01/20 11:19:01;;;;;;;13.23;5.95;;;;;;;0.41;77.28;93663.28;5049338;28;20041;-59
2023/01/20 11:21:35;;;;;;;15.30;5.65;;;;;;;1.14;75.16;93661.44;5049601;28;20045;-59
2023/01/20 11:24:37;;;;;;;22.50;6.00;;;;;;;1.32;74.11;93657.09;5048486;28;20767;-59
2023/01/20 11:27:09;;;;;;;13.73;6.07;;;;;;;-0.10;79.80;93656.09;5018955;28;21817;-59
2023/01/20 11:29:48;;;;;;;15.00;6.57;;;;;;;0.83;76.55;93659.78;5048488;28;20060;-60
2023/01/20 11:32:34;;;;;;;12.05;5.72;;;;;;;0.68;73.54;93667.63;5048180;28;20052;-59
2023/01/20 11:35:19;;;;;;;13.52;5.35;;;;;;;1.17;71.54;93663.44;5048759;28;20037;-59
2023/01/20 11:37:46;;;;;;;13.98;4.65;;;;;;;1.09;70.22;93656.38;5048867;28;20041;-59
2023/01/20 11:40:19;;;;;;;18.27;5.10;;;;;;;1.04;71.11;93662.06;5049521;28;20170;-59
2023/01/20 11:42:48;;;;;;;10.77;4.55;;;;;;;1.16;71.40;93670.75;5052517;28;20383;-59